Time;durP1;ratioP1;P1;durP2;ratioP2;P2;SDS_P1;SDS_P2;PMS_P1;PMS_P2;Temp;Humidity;BMP_temperature;BMP_pressure;BME280_temperature;BME280_humidity;BME280_pressure;Samples;Min_cycle;Max_cycle;Signal;HPM_P1;HPM_P2
2021/04/07 00:00:16;;;;;;;14.00;7.97;;;77.10;2227.20;;;;;;4838971;29;20022;-71
2021/04/07 00:02:42;;;;;;;12.98;6.68;;;77.00;2227.20;;;;;;4837409;29;20086;-70
2021/04/07 00:05:14;;;;;;;13.35;6.53;;;76.90;2227.20;;;;;;4822185;29;20030;-71
2021/04/07 00:07:43;;;;;;;14.75;7.63;;;76.80;2227.20;;;;;;4837989;29;20033;-70
2021/04/07 00:10:12;;;;;;;16.05;7.70;;;52.10;2227.20;;;;;;4823357;29;20046;-70
2021/04/07 00:12:38;;;;;;;11.82;5.80;;;52.00;2227.20;;;;;;4839734;29;20018;-70
2021/04/07 00:15:24;;;;;;;11.45;5.60;;;52.00;2227.20;;;;;;4840166;29;20018;-70
2021/04/07 00:17:50;;;;;;;9.13;5.87;;;52.00;2227.20;;;;;;4839136;29;20034;-70
2021/04/07 00:20:20;;;;;;;9.68;5.20;;;51.90;2227.20;;;;;;4839711;29;20069;-70
2021/04/07 00:22:46;;;;;;;8.50;5.80;;;51.90;2227.20;;;;;;4838212;29;20117;-70
2021/04/07 00:25:12;;;;;;;9.73;5.82;;;51.80;2227.20;;;;;;4838927;29;20117;-70
2021/04/07 00:27:41;;;;;;;8.95;5.68;;;51.90;2227.20;;;;;;4839835;29;20094;-70
2021/04/07 00:30:09;;;;;;;9.73;5.28;;;51.90;2227.20;;;;;;4838157;29;20026;-70
2021/04/07 00:32:35;;;;;;;9.85;5.93;;;51.90;2227.20;;;;;;4843321;29;20403;-70
2021/04/07 00:35:01;;;;;;;9.77;5.93;;;51.90;2227.20;;;;;;4841823;29;20086;-70
2021/04/07 00:37:26;;;;;;;8.95;6.53;;;51.80;2227.20;;;;;;4843324;29;20026;-70
2021/04/07 00:39:53;;;;;;;9.10;6.20;;;51.80;2227.20;;;;;;4826314;29;20152;-70
2021/04/07 00:42:20;;;;;;;10.88;6.90;;;51.80;2227.20;;;;;;4840225;29;20022;-70
2021/04/07 00:44:45;;;;;;;10.82;6.60;;;51.80;2227.20;;;;;;4825083;29;20480;-70
2021/04/07 00:47:14;;;;;;;12.68;5.68;;;51.90;2227.20;;;;;;4840793;29;20025;-70
2021/04/07 00:49:40;;;;;;;9.40;6.35;;;51.90;2227.20;;;;;;4841602;29;20492;-70
2021/04/07 00:52:06;;;;;;;13.95;5.75;;;51.90;2227.20;;;;;;4843556;29;20163;-70
2021/04/07 00:54:32;;;;;;;14.85;7.63;;;51.90;2227.20;;;;;;4840862;29;20074;-70
2021/04/07 00:56:58;;;;;;;12.77;6.68;;;51.90;2227.20;;;;;;4843611;29;20835;-70
2021/04/07 00:59:24;;;;;;;10.63;7.30;;;51.90;2227.20;;;;;;4838783;29;20042;-70
2021/04/07 01:01:50;;;;;;;10.15;6.63;;;51.90;2227.20;;;;;;4826712;29;20110;-70
2021/04/07 01:04:18;;;;;;;11.60;6.68;;;52.00;2227.20;;;;;;4824323;29;20056;-69
2021/04/07 01:06:46;;;;;;;11.88;7.18;;;51.90;2227.20;;;;;;4823566;29;20472;-69
2021/04/07 01:09:12;;;;;;;10.25;7.30;;;52.00;2227.20;;;;;;4843333;29;20452;-70
2021/04/07 01:11:37;;;;;;;10.32;6.35;;;52.00;2227.20;;;;;;4843489;29;20038;-70
2021/04/07 01:14:04;;;;;;;10.40;6.55;;;51.90;2227.20;;;;;;4842010;29;20062;-69
2021/04/07 01:16:30;;;;;;;9.95;5.10;;;52.00;2227.20;;;;;;4843218;29;20125;-70
2021/04/07 01:18:56;;;;;;;14.32;7.20;;;51.90;2227.20;;;;;;4825402;29;20061;-69
2021/04/07 01:21:22;;;;;;;12.10;6.05;;;51.90;2227.20;;;;;;4842947;29;20093;-70
2021/04/07 01:23:48;;;;;;;8.55;6.03;;;51.90;2227.20;;;;;;4843011;29;20441;-70
2021/04/07 01:26:15;;;;;;;7.70;5.35;;;51.90;2227.20;;;;;;4825870;29;20048;-70
2021/04/07 01:28:42;;;;;;;8.82;5.57;;;51.90;2227.20;;;;;;4842632;29;20026;-69
2021/04/07 01:31:08;;;;;;;7.53;5.10;;;51.80;2227.20;;;;;;4843017;29;20033;-70
2021/04/07 01:33:35;;;;;;;11.20;5.90;;;51.90;2227.20;;;;;;4842673;29;20037;-69
2021/04/07 01:36:01;;;;;;;9.27;5.35;;;51.90;2227.20;;;;;;4845640;29;20145;-69
2021/04/07 01:38:27;;;;;;;9.93;5.10;;;51.80;2227.20;;;;;;4844712;29;20040;-69
2021/04/07 01:40:54;;;;;;;8.25;5.78;;;51.80;2227.20;;;;;;4847540;29;20030;-70
2021/04/07 01:43:23;;;;;;;10.50;4.55;;;51.90;2227.20;;;;;;4851420;29;20045;-70
2021/04/07 01:45:50;;;;;;;8.48;4.63;;;51.80;2227.20;;;;;;4842723;29;20034;-69
2021/04/07 01:48:17;;;;;;;8.98;5.47;;;51.90;2227.20;;;;;;4842561;29;20022;-69
2021/04/07 01:50:47;;;;;;;8.55;5.72;;;51.90;2227.20;;;;;;4843124;29;20026;-70
2021/04/07 01:53:14;;;;;;;8.45;4.60;;;51.80;2227.20;;;;;;4842297;29;20491;-69
2021/04/07 01:55:40;;;;;;;8.00;4.97;;;51.80;2227.20;;;;;;4825604;29;20094;-69
2021/04/07 01:58:06;;;;;;;9.88;6.07;;;51.80;2227.20;;;;;;4842041;29;20110;-69
2021/04/07 02:00:33;;;;;;;10.38;5.28;;;51.80;2227.20;;;;;;4846788;29;20030;-70
2021/04/07 02:03:03;;;;;;;9.70;6.07;;;51.80;2227.20;;;;;;4852382;29;20487;-70
2021/04/07 02:05:30;;;;;;;9.70;6.18;;;51.80;2227.20;;;;;;4842859;29;20441;-70
2021/04/07 02:07:57;;;;;;;7.70;5.15;;;51.80;2227.20;;;;;;4826049;29;20395;-70
2021/04/07 02:10:23;;;;;;;10.13;5.65;;;51.80;2227.20;;;;;;4844119;29;20026;-69
2021/04/07 02:12:56;;;;;;;11.68;5.55;;;51.80;2227.20;;;;;;4842063;29;20075;-70
2021/04/07 02:15:24;;;;;;;8.10;5.03;;;51.80;2227.20;;;;;;4842276;29;20033;-70
2021/04/07 02:17:50;;;;;;;9.80;6.07;;;51.80;2227.20;;;;;;4826425;29;20825;-70
2021/04/07 02:20:17;;;;;;;8.02;5.72;;;51.80;2227.20;;;;;;4842070;29;20062;-70
2021/04/07 02:22:43;;;;;;;7.93;5.35;;;51.80;2227.20;;;;;;4842590;29;20532;-70
2021/04/07 02:25:10;;;;;;;9.43;6.25;;;51.80;2227.20;;;;;;4842484;29;20096;-70
2021/04/07 02:27:38;;;;;;;10.85;6.57;;;51.70;2227.20;;;;;;4847881;29;20518;-70
2021/04/07 02:30:07;;;;;;;8.15;5.57;;;51.70;2227.20;;;;;;4850705;29;20063;-70
2021/04/07 02:32:33;;;;;;;9.98;6.95;;;51.70;2227.20;;;;;;4848497;29;20029;-70
2021/04/07 02:34:59;;;;;;;10.13;6.15;;;51.70;2227.20;;;;;;4854644;29;20069;-70
2021/04/07 02:37:25;;;;;;;12.48;6.13;;;51.70;2227.20;;;;;;4844726;29;20507;-70
2021/04/07 02:39:50;;;;;;;8.30;6.38;;;51.80;2227.20;;;;;;4845043;29;20041;-70
2021/04/07 02:42:20;;;;;;;9.27;6.18;;;51.70;2227.20;;;;;;4831452;29;20034;-70
2021/04/07 02:44:46;;;;;;;11.90;6.57;;;51.70;2227.20;;;;;;4850289;29;20032;-70
2021/04/07 02:47:11;;;;;;;11.43;7.55;;;51.70;2227.20;;;;;;4847034;29;20022;-69
2021/04/07 02:49:37;;;;;;;12.13;7.50;;;51.70;2227.20;;;;;;4845062;29;20030;-70
2021/04/07 02:52:04;;;;;;;11.10;7.00;;;51.70;2227.20;;;;;;4847587;29;20475;-69
2021/04/07 02:54:30;;;;;;;14.18;6.78;;;51.70;2227.20;;;;;;4852657;29;20060;-69
2021/04/07 02:56:56;;;;;;;10.50;6.70;;;51.60;2227.20;;;;;;4849597;29;20038;-69
2021/04/07 02:59:22;;;;;;;13.98;7.47;;;51.70;2227.20;;;;;;4840670;29;20066;-69
2021/04/07 03:01:48;;;;;;;14.35;6.85;;;51.60;2227.20;;;;;;4842231;29;20104;-69
2021/04/07 03:04:14;;;;;;;12.77;7.72;;;51.60;2227.20;;;;;;4845144;29;20051;-69
2021/04/07 03:06:41;;;;;;;14.52;9.40;;;51.60;2227.20;;;;;;4846883;29;20038;-69
2021/04/07 03:09:07;;;;;;;13.52;7.97;;;51.50;2227.20;;;;;;4850512;29;20037;-70
2021/04/07 03:11:34;;;;;;;14.50;10.27;;;51.50;2227.20;;;;;;4852860;29;20073;-70
2021/04/07 03:14:00;;;;;;;15.27;9.18;;;51.40;2227.20;;;;;;4843741;29;20018;-69
2021/04/07 03:16:26;;;;;;;14.90;9.82;;;51.40;2227.20;;;;;;4842452;29;20042;-70
2021/04/07 03:18:52;;;;;;;14.63;10.18;;;51.40;2227.20;;;;;;4851519;29;20038;-69
2021/04/07 03:21:17;;;;;;;16.38;10.32;;;51.50;2227.20;;;;;;4857367;29;20033;-69
2021/04/07 03:23:43;;;;;;;17.00;10.20;;;51.50;2227.20;;;;;;4824606;29;20045;-69
2021/04/07 03:26:09;;;;;;;11.50;7.95;;;51.40;2227.20;;;;;;4840716;29;20534;-70
2021/04/07 03:28:34;;;;;;;12.15;8.60;;;51.50;2227.20;;;;;;4846920;29;20117;-70
2021/04/07 03:31:00;;;;;;;12.73;9.13;;;51.40;2227.20;;;;;;4822511;29;20091;-70
2021/04/07 03:33:29;;;;;;;17.90;10.13;;;51.40;2227.20;;;;;;4824688;29;20053;-70
2021/04/07 03:35:56;;;;;;;13.82;9.52;;;51.40;2227.20;;;;;;4850949;29;20026;-69
2021/04/07 03:38:22;;;;;;;16.95;9.40;;;51.40;2227.20;;;;;;4841003;29;20480;-69
2021/04/07 03:40:48;;;;;;;14.27;9.52;;;51.30;2227.20;;;;;;4824133;29;20133;-69
2021/04/07 03:43:16;;;;;;;15.02;9.65;;;51.30;2227.20;;;;;;4840009;29;20041;-70
2021/04/07 03:45:43;;;;;;;15.48;8.70;;;51.30;2227.20;;;;;;4840462;29;20034;-69
2021/04/07 03:48:12;;;;;;;16.40;9.23;;;51.30;2227.20;;;;;;4853590;29;20056;-69
2021/04/07 03:50:40;;;;;;;16.55;9.75;;;51.30;2227.20;;;;;;4848302;29;20388;-69
2021/04/07 03:53:07;;;;;;;16.55;9.75;;;51.30;2227.20;;;;;;4840207;29;20022;-70
2021/04/07 03:55:33;;;;;;;14.45;9.68;;;51.20;2227.20;;;;;;4848599;29;20030;-69
2021/04/07 03:57:59;;;;;;;13.90;9.02;;;51.20;2227.20;;;;;;4832421;29;20043;-70
2021/04/07 04:00:25;;;;;;;15.57;9.65;;;51.20;2227.20;;;;;;4820345;29;20034;-69
2021/04/07 04:02:51;;;;;;;14.10;9.82;;;51.20;2227.20;;;;;;4830018;29;20037;-69
2021/04/07 04:05:16;;;;;;;16.38;10.38;;;26.50;2201.60;;;;;;4839802;29;20034;-70
2021/04/07 04:07:43;;;;;;;12.68;8.90;;;26.50;2201.60;;;;;;4855836;29;20033;-69
2021/04/07 04:10:09;;;;;;;13.00;9.32;;;26.50;2201.60;;;;;;4848849;29;20075;-69
2021/04/07 04:12:35;;;;;;;15.27;10.25;;;26.50;2201.60;;;;;;4840423;29;20037;-69
2021/04/07 04:15:01;;;;;;;13.95;9.38;;;26.50;2201.60;;;;;;4824216;29;20026;-69
2021/04/07 04:17:27;;;;;;;14.35;9.68;;;26.40;2201.60;;;;;;4842644;29;20034;-69
2021/04/07 04:19:52;;;;;;;13.43;9.65;;;26.30;2201.60;;;;;;4849047;29;20077;-69
2021/04/07 04:22:18;;;;;;;16.67;11.23;;;26.30;2201.60;;;;;;4843888;29;20096;-70
2021/04/07 04:24:46;;;;;;;17.38;9.88;;;26.20;2201.60;;;;;;4846525;29;20034;-69
2021/04/07 04:27:12;;;;;;;14.57;10.82;;;26.20;2201.60;;;;;;4826386;29;20183;-69
2021/04/07 04:29:38;;;;;;;15.30;11.05;;;26.20;2201.60;;;;;;4843551;29;20120;-70
2021/04/07 04:32:04;;;;;;;16.88;11.63;;;26.20;2201.60;;;;;;4821726;29;20034;-69
2021/04/07 04:34:30;;;;;;;21.75;13.60;;;26.10;2201.60;;;;;;4820499;29;20536;-69
2021/04/07 04:36:55;;;;;;;15.13;10.77;;;26.20;2201.60;;;;;;4820124;29;20068;-69
2021/04/07 04:39:21;;;;;;;16.67;10.90;;;26.20;2201.60;;;;;;4839744;29;20484;-69
2021/04/07 04:41:47;;;;;;;20.15;12.32;;;26.30;2201.60;;;;;;4823561;29;20049;-69
2021/04/07 04:44:12;;;;;;;18.85;11.82;;;26.30;2201.60;;;;;;4840009;29;20034;-69
2021/04/07 04:46:38;;;;;;;19.05;12.02;;;26.30;2201.60;;;;;;4839416;29;20116;-69
2021/04/07 04:49:04;;;;;;;20.02;12.55;;;26.30;2201.60;;;;;;4830369;29;20095;-69
2021/04/07 04:51:30;;;;;;;18.27;11.77;;;26.40;2201.60;;;;;;4821750;29;20041;-69
2021/04/07 04:53:55;;;;;;;18.25;11.55;;;26.50;2201.60;;;;;;4840379;29;20731;-69
2021/04/07 04:56:21;;;;;;;15.82;11.25;;;26.50;2201.60;;;;;;4839427;29;20049;-69
2021/04/07 04:58:47;;;;;;;15.73;10.20;;;26.50;2201.60;;;;;;4823632;29;20042;-69
2021/04/07 05:01:13;;;;;;;15.63;9.63;;;26.50;2201.60;;;;;;4839622;29;20122;-69
2021/04/07 05:03:38;;;;;;;14.70;9.77;;;26.50;2201.60;;;;;;4839568;29;20030;-69
2021/04/07 05:06:04;;;;;;;21.52;12.98;;;26.50;2201.60;;;;;;4832822;29;20038;-69
2021/04/07 05:08:30;;;;;;;23.60;11.45;;;26.50;2201.60;;;;;;4832153;29;20484;-69
2021/04/07 05:10:56;;;;;;;27.30;14.45;;;51.20;2227.20;;;;;;4839776;29;20090;-69
2021/04/07 05:13:21;;;;;;;32.13;16.30;;;51.20;2227.20;;;;;;4823668;29;20120;-70
2021/04/07 05:15:47;;;;;;;26.48;14.82;;;51.20;2227.20;;;;;;4823369;29;20082;-70
2021/04/07 05:18:15;;;;;;;32.72;16.15;;;51.20;2227.20;;;;;;4843460;29;20391;-70
2021/04/07 05:20:42;;;;;;;40.10;19.38;;;51.20;2227.20;;;;;;4825663;29;20044;-69
2021/04/07 05:23:08;;;;;;;24.23;13.75;;;26.50;2201.60;;;;;;4842457;29;20030;-69
2021/04/07 05:25:35;;;;;;;24.23;13.50;;;26.40;2201.60;;;;;;4840079;29;20038;-70
2021/04/07 05:28:06;;;;;;;22.70;12.73;;;26.30;2201.60;;;;;;4841285;29;20118;-69
2021/04/07 05:33:23;;;;;;;31.55;15.70;;;26.30;2201.60;;;;;;4838305;29;20087;-69
2021/04/07 05:35:49;;;;;;;66.57;31.15;;;26.20;2201.60;;;;;;4838157;29;20054;-69
2021/04/07 05:38:17;;;;;;;34.25;19.27;;;26.10;2201.60;;;;;;4837648;29;20373;-69
2021/04/07 05:40:43;;;;;;;29.70;16.50;;;26.10;2201.60;;;;;;4840933;29;20018;-69
2021/04/07 05:43:09;;;;;;;23.77;13.02;;;26.20;2201.60;;;;;;4826210;29;20038;-70
2021/04/07 05:45:39;;;;;;;25.63;15.02;;;26.20;2201.60;;;;;;4843122;29;20053;-69
2021/04/07 05:48:06;;;;;;;22.70;13.38;;;26.40;2201.60;;;;;;4841875;29;20054;-69
2021/04/07 05:50:34;;;;;;;21.92;13.73;;;26.50;2201.60;;;;;;4843003;29;20041;-69
2021/04/07 05:53:00;;;;;;;20.58;11.85;;;51.20;2227.20;;;;;;4842731;29;20444;-70
2021/04/07 05:55:25;;;;;;;24.33;14.15;;;51.30;2227.20;;;;;;4838022;29;20113;-70
2021/04/07 05:58:07;;;;;;;26.98;15.50;;;51.30;2227.20;;;;;;4842107;29;20030;-69
2021/04/07 06:00:34;;;;;;;33.70;18.20;;;51.40;2227.20;;;;;;4830308;29;20049;-70
2021/04/07 06:03:03;;;;;;;30.15;16.88;;;51.60;2227.20;;;;;;4842054;29;20041;-70
2021/04/07 06:05:29;;;;;;;25.42;14.43;;;51.80;2227.20;;;;;;4842565;29;20038;-69
2021/04/07 06:07:55;;;;;;;25.80;14.20;;;51.80;2227.20;;;;;;4842423;29;20411;-70
2021/04/07 06:10:21;;;;;;;22.55;14.73;;;52.00;2227.20;;;;;;4825016;29;20049;-69
2021/04/07 06:12:47;;;;;;;16.27;10.77;;;52.10;2227.20;;;;;;4842002;29;20378;-69
2021/04/07 06:15:14;;;;;;;25.17;14.48;;;76.80;2227.20;;;;;;4826068;29;20022;-70
2021/04/07 06:17:41;;;;;;;22.42;14.10;;;76.90;2227.20;;;;;;4830469;29;20034;-70
2021/04/07 06:20:09;;;;;;;20.05;12.63;;;77.30;2227.20;;;;;;4837552;29;20037;-70
2021/04/07 06:22:35;;;;;;;22.85;13.27;;;77.50;2227.20;;;;;;4843393;29;20032;-70
2021/04/07 06:25:04;;;;;;;18.38;12.13;;;77.60;2227.20;;;;;;4838427;29;20030;-70
2021/04/07 06:27:29;;;;;;;13.15;10.07;;;77.70;2227.20;;;;;;4838921;29;20432;-70
2021/04/07 06:29:55;;;;;;;21.08;11.23;;;102.40;2227.20;;;;;;4843945;29;20034;-71
2021/04/07 06:32:21;;;;;;;15.05;9.35;;;102.70;2227.20;;;;;;4827924;29;20042;-70
2021/04/07 06:34:47;;;;;;;15.98;9.77;;;102.90;2176.00;;;;;;4839686;29;20030;-71
2021/04/07 06:37:12;;;;;;;14.65;9.95;;;103.10;2176.00;;;;;;4839464;29;20066;-70
2021/04/07 06:39:38;;;;;;;25.67;14.75;;;103.20;2150.40;;;;;;4840421;29;20039;-71
2021/04/07 06:42:06;;;;;;;16.35;11.02;;;103.30;2150.40;;;;;;4822353;29;20041;-76
2021/04/07 06:44:32;;;;;;;17.85;11.05;;;128.00;2150.40;;;;;;4842370;29;20516;-73
2021/04/07 06:46:58;;;;;;;18.00;13.00;;;128.10;2150.40;;;;;;4841564;29;20057;-73
2021/04/07 06:49:26;;;;;;;20.77;13.50;;;128.00;2150.40;;;;;;4838883;29;20053;-72
2021/04/07 06:51:55;;;;;;;22.95;12.50;;;128.10;2150.40;;;;;;4839870;29;20049;-72
2021/04/07 06:54:27;;;;;;;17.25;11.85;;;128.50;2124.80;;;;;;4823850;29;20030;-72
2021/04/07 06:56:54;;;;;;;30.58;12.02;;;128.50;2099.20;;;;;;4841625;29;20037;-72
2021/04/07 06:59:21;;;;;;;16.23;10.23;;;153.70;2022.40;;;;;;4838664;29;20066;-72
2021/04/07 07:01:47;;;;;;;17.50;11.23;;;128.90;1996.80;;;;;;4841575;29;20508;-72
2021/04/07 07:04:13;;;;;;;15.65;9.93;;;153.60;1971.20;;;;;;4838689;29;21498;-72
2021/04/07 07:06:39;;;;;;;12.43;9.23;;;153.90;1996.80;;;;;;4840738;29;20057;-72
2021/04/07 07:09:19;;;;;;;14.35;10.00;;;154.20;1945.60;;;;;;4841145;29;20396;-72
2021/04/07 07:11:51;;;;;;;17.50;11.48;;;154.30;1945.60;;;;;;4841135;29;20033;-73
2021/04/07 07:14:18;;;;;;;17.75;10.07;;;154.50;1843.20;;;;;;4839660;29;20026;-72
2021/04/07 07:16:45;;;;;;;11.35;8.57;;;179.20;1817.60;;;;;;4817349;29;20041;-72
2021/04/07 07:19:31;;;;;;;13.18;9.80;;;179.30;1843.20;;;;;;4840686;29;20033;-71
2021/04/07 07:22:06;;;;;;;18.88;10.63;;;179.50;1792.00;;;;;;4823264;29;20085;-71
2021/04/07 07:24:40;;;;;;;12.15;9.50;;;179.60;1740.80;;;;;;4838914;29;20078;-71
2021/04/07 07:27:07;;;;;;;17.63;9.98;;;154.50;1792.00;;;;;;4840342;29;20450;-71
2021/04/07 07:29:35;;;;;;;17.20;10.30;;;179.30;1792.00;;;;;;4842781;29;20030;-71
2021/04/07 07:32:31;;;;;;;13.70;9.52;;;179.30;1792.00;;;;;;4836031;29;20113;-72
2021/04/07 07:35:07;;;;;;;18.52;10.10;;;179.40;1792.00;;;;;;4839632;29;20599;-71
2021/04/07 07:37:33;;;;;;;16.10;9.75;;;179.70;1715.20;;;;;;4838193;29;20472;-71
2021/04/07 07:39:59;;;;;;;16.60;9.98;;;179.80;1715.20;;;;;;4823360;29;20053;-71
2021/04/07 07:42:24;;;;;;;21.63;12.05;;;179.90;1715.20;;;;;;4829299;29;20116;-71
2021/04/07 07:44:50;;;;;;;15.05;9.40;;;180.00;1715.20;;;;;;4833386;29;20045;-71
2021/04/07 07:47:19;;;;;;;11.07;8.23;;;204.80;1689.60;;;;;;4842444;29;20369;-71
2021/04/07 07:49:59;;;;;;;17.35;9.52;;;205.10;1587.20;;;;;;4822129;29;20045;-70
2021/04/07 07:52:27;;;;;;;13.30;9.48;;;205.20;1638.40;;;;;;4836132;29;20775;-71
2021/04/07 07:54:53;;;;;;;11.18;8.52;;;205.40;1612.80;;;;;;4838515;29;20030;-71
2021/04/07 07:57:18;;;;;;;12.90;9.50;;;205.40;1587.20;;;;;;4838327;29;20077;-70
2021/04/07 07:59:44;;;;;;;15.30;9.65;;;205.70;1561.60;;;;;;4819752;29;20038;-71
2021/04/07 08:02:19;;;;;;;15.60;8.43;;;230.50;1510.40;;;;;;4835839;29;20053;-71
2021/04/07 08:04:46;;;;;;;12.30;8.45;;;231.20;1459.20;;;;;;4840058;29;21540;-73
2021/04/07 08:07:14;;;;;;;8.57;6.88;;;231.30;1459.20;;;;;;4837087;29;20018;-71
2021/04/07 08:09:40;;;;;;;12.50;8.48;;;231.00;1305.60;;;;;;4838185;29;20029;-71
2021/04/07 08:12:09;;;;;;;16.40;8.85;;;231.10;1305.60;;;;;;4837750;29;20022;-71
2021/04/07 08:14:35;;;;;;;13.80;8.75;;;256.00;1331.20;;;;;;4839819;29;20022;-72
2021/04/07 08:17:02;;;;;;;10.70;8.30;;;231.10;1356.80;;;;;;4824338;29;20026;-72
2021/04/07 08:19:29;;;;;;;12.55;7.75;;;230.90;1356.80;;;;;;4838977;29;20034;-74
2021/04/07 08:21:58;;;;;;;15.32;7.80;;;231.20;1305.60;;;;;;4823753;29;20393;-74
2021/04/07 08:24:27;;;;;;;10.05;6.75;;;231.10;1305.60;;;;;;4822464;29;20050;-72
2021/04/07 08:26:53;;;;;;;10.60;8.75;;;231.20;1254.40;;;;;;4839642;29;20048;-73
2021/04/07 08:29:19;;;;;;;12.45;7.47;;;231.30;1305.60;;;;;;4839073;29;20022;-72
2021/04/07 08:31:49;;;;;;;14.02;7.97;;;256.10;1254.40;;;;;;4822051;29;21043;-72
2021/04/07 08:34:16;;;;;;;8.95;6.90;;;256.40;1254.40;;;;;;4823397;29;20538;-72
2021/04/07 08:36:43;;;;;;;11.02;7.65;;;256.60;1203.20;;;;;;4821113;29;20042;-71
2021/04/07 08:39:11;;;;;;;15.23;9.50;;;256.50;1177.60;;;;;;4842217;29;20086;-72
2021/04/07 08:41:37;;;;;;;14.10;9.63;;;256.90;1177.60;;;;;;4838527;29;20053;-71
2021/04/07 08:44:04;;;;;;;11.82;7.38;;;281.70;1177.60;;;;;;4840067;29;20030;-71
2021/04/07 08:46:45;;;;;;;11.95;7.20;;;282.10;1152.00;;;;;;4823234;29;20125;-71
2021/04/07 08:49:31;;;;;;;11.75;8.27;;;282.40;1126.40;;;;;;4840675;29;20481;-71
2021/04/07 08:51:57;;;;;;;9.77;6.68;;;282.40;1126.40;;;;;;4826677;29;20037;-70
2021/04/07 08:54:23;;;;;;;10.52;7.47;;;282.30;1100.80;;;;;;4841915;29;20041;-70
2021/04/07 08:56:55;;;;;;;10.25;8.10;;;282.10;1075.20;;;;;;4837645;29;20030;-70
2021/04/07 08:59:24;;;;;;;11.38;7.10;;;282.20;1100.80;;;;;;4823488;29;20069;-70
2021/04/07 09:02:05;;;;;;;11.13;7.63;;;282.30;1049.60;;;;;;4835648;29;20033;-70
2021/04/07 09:04:35;;;;;;;13.45;8.27;;;282.00;1075.20;;;;;;4837128;29;20805;-69
2021/04/07 09:07:02;;;;;;;9.73;6.85;;;282.50;1075.20;;;;;;4839258;29;20034;-70
2021/04/07 09:09:34;;;;;;;10.02;6.32;;;282.50;998.40;;;;;;4837308;29;20022;-70
2021/04/07 09:12:01;;;;;;;10.27;7.28;;;307.40;1024.00;;;;;;4828176;29;20117;-69
2021/04/07 09:14:27;;;;;;;9.77;7.00;;;307.80;1049.60;;;;;;4841151;29;20029;-70
2021/04/07 09:17:04;;;;;;;9.75;6.78;;;333.00;1024.00;;;;;;4841111;29;20054;-70
2021/04/07 09:19:34;;;;;;;9.05;6.43;;;332.80;1049.60;;;;;;4843344;29;20452;-71
2021/04/07 09:22:08;;;;;;;7.25;5.82;;;282.50;998.40;;;;;;4837715;29;20492;-70
2021/04/07 09:24:43;;;;;;;10.48;6.47;;;307.30;998.40;;;;;;4844139;29;20475;-70
2021/04/07 09:27:25;;;;;;;10.07;6.70;;;308.00;972.80;;;;;;4843093;29;20042;-70
2021/04/07 09:29:51;;;;;;;8.35;6.38;;;333.00;972.80;;;;;;4838218;29;20063;-71
2021/04/07 09:32:19;;;;;;;7.95;5.53;;;333.30;998.40;;;;;;4842557;29;20033;-71
2021/04/07 09:34:45;;;;;;;11.98;5.63;;;307.70;947.20;;;;;;4840411;29;20030;-70
2021/04/07 09:37:12;;;;;;;7.82;5.47;;;307.40;947.20;;;;;;4825997;29;20394;-71
2021/04/07 09:39:38;;;;;;;8.55;5.68;;;332.80;947.20;;;;;;4835322;29;20061;-71
2021/04/07 09:42:05;;;;;;;8.02;5.55;;;333.30;921.60;;;;;;4837757;29;20034;-71
2021/04/07 09:44:31;;;;;;;14.20;6.35;;;332.90;921.60;;;;;;4841873;29;20030;-72
2021/04/07 09:46:59;;;;;;;6.97;5.22;;;307.60;972.80;;;;;;4822685;29;20038;-71
2021/04/07 09:49:26;;;;;;;10.60;6.70;;;307.70;947.20;;;;;;4824525;29;20057;-70
2021/04/07 09:51:53;;;;;;;7.25;5.43;;;307.40;947.20;;;;;;4838130;29;20019;-71
2021/04/07 09:54:21;;;;;;;11.00;6.13;;;307.80;896.00;;;;;;4839232;29;20030;-71
2021/04/07 09:57:03;;;;;;;8.52;5.82;;;332.80;870.40;;;;;;4822792;29;20038;-71
2021/04/07 09:59:48;;;;;;;11.13;5.18;;;307.90;844.80;;;;;;4841355;29;20026;-71
2021/04/07 10:02:23;;;;;;;9.07;6.13;;;358.40;819.20;;;;;;4841396;29;20034;-71
2021/04/07 10:04:50;;;;;;;8.10;5.25;;;358.70;844.80;;;;;;4842061;29;20042;-71
2021/04/07 10:07:21;;;;;;;10.45;5.60;;;332.90;870.40;;;;;;4843632;29;20026;-71
2021/04/07 10:10:07;;;;;;;14.95;8.20;;;333.60;844.80;;;;;;4835027;29;20039;-71
2021/04/07 10:12:33;;;;;;;15.82;6.18;;;333.60;819.20;;;;;;4838948;29;20018;-71
2021/04/07 10:15:01;;;;;;;12.48;6.72;;;384.00;768.00;;;;;;4836878;29;20021;-71
2021/04/07 10:17:32;;;;;;;15.93;8.77;;;384.60;742.40;;;;;;4836872;29;20029;-70
2021/04/07 10:20:12;;;;;;;10.13;6.60;;;384.30;742.40;;;;;;4838001;29;20572;-71
2021/04/07 10:22:38;;;;;;;10.02;5.68;;;359.30;716.80;;;;;;4837992;29;20034;-70
2021/04/07 10:25:26;;;;;;;18.25;10.20;;;409.80;691.20;;;;;;4844480;29;20029;-70
2021/04/07 10:27:52;;;;;;;9.27;5.35;;;409.60;742.40;;;;;;4841001;29;20107;-71
2021/04/07 10:30:23;;;;;;;10.65;5.50;;;384.10;716.80;;;;;;4828675;29;20487;-71
2021/04/07 10:32:50;;;;;;;10.52;5.45;;;358.70;716.80;;;;;;4846666;29;20026;-71
2021/04/07 10:35:21;;;;;;;6.55;4.15;;;333.70;716.80;;;;;;4842138;29;20090;-71
2021/04/07 10:37:52;;;;;;;7.20;4.88;;;384.20;665.60;;;;;;4826003;29;20046;-71
2021/04/07 10:40:22;;;;;;;8.68;5.57;;;409.90;665.60;;;;;;4846267;29;20034;-71
2021/04/07 10:42:49;;;;;;;9.38;4.63;;;384.70;665.60;;;;;;4842001;29;20026;-71
2021/04/07 10:45:18;;;;;;;9.43;5.13;;;358.80;691.20;;;;;;4842310;29;20826;-71
2021/04/07 10:47:44;;;;;;;8.13;4.68;;;359.30;691.20;;;;;;4816356;29;20066;-71
2021/04/07 10:50:11;;;;;;;6.60;4.88;;;409.70;640.00;;;;;;4853085;29;20026;-71
2021/04/07 10:52:43;;;;;;;27.08;8.70;;;384.40;665.60;;;;;;4841958;29;20030;-71
2021/04/07 10:55:10;;;;;;;8.50;5.40;;;358.90;716.80;;;;;;4829463;29;20109;-71
2021/04/07 10:57:47;;;;;;;7.95;5.03;;;359.30;665.60;;;;;;4825749;29;20450;-71
2021/04/07 11:00:32;;;;;;;6.25;4.40;;;409.60;665.60;;;;;;4837136;29;20037;-71
2021/04/07 11:02:58;;;;;;;8.20;4.78;;;410.20;640.00;;;;;;4825310;29;20086;-71
2021/04/07 11:05:39;;;;;;;9.52;5.55;;;409.90;665.60;;;;;;4825330;29;20049;-71
2021/04/07 11:08:07;;;;;;;9.68;4.70;;;384.10;640.00;;;;;;4839427;29;20806;-71
2021/04/07 11:10:37;;;;;;;6.88;4.78;;;358.60;640.00;;;;;;4842041;29;20034;-71
2021/04/07 11:13:04;;;;;;;6.85;5.05;;;384.60;640.00;;;;;;4836562;29;20078;-71
2021/04/07 11:15:30;;;;;;;8.50;5.60;;;435.20;640.00;;;;;;4839837;29;20053;-71
2021/04/07 11:17:56;;;;;;;7.20;4.43;;;409.90;640.00;;;;;;4838533;29;20753;-69
2021/04/07 11:20:22;;;;;;;11.88;6.30;;;384.50;640.00;;;;;;4839599;29;20102;-69
2021/04/07 11:22:48;;;;;;;9.10;5.22;;;384.00;691.20;;;;;;4845803;29;20036;-72
2021/04/07 11:25:15;;;;;;;10.77;5.20;;;358.40;716.80;;;;;;4838705;29;20543;-71
2021/04/07 11:27:41;;;;;;;8.40;4.10;;;359.10;640.00;;;;;;4838975;29;20839;-71
2021/04/07 11:30:08;;;;;;;12.27;6.03;;;410.10;614.40;;;;;;4818950;29;20027;-71
2021/04/07 11:32:36;;;;;;;6.10;4.00;;;435.90;614.40;;;;;;4839409;29;20058;-71
2021/04/07 11:35:12;;;;;;;6.47;4.43;;;435.90;588.80;;;;;;4836106;29;20760;-71
2021/04/07 11:37:59;;;;;;;11.18;4.68;;;461.60;563.20;;;;;;4821369;29;20034;-71
2021/04/07 11:43:30;;;;;;;4.82;3.72;;;460.80;614.40;;;;;;4838928;29;19919;-70
2021/04/07 11:45:50;;;;;;;8.48;5.40;;;409.80;640.00;;;;;;4842475;29;20042;-71
2021/04/07 11:48:16;;;;;;;8.88;4.45;;;384.10;640.00;;;;;;4841611;29;20025;-71
2021/04/07 11:50:41;;;;;;;7.88;4.55;;;359.30;640.00;;;;;;4834240;29;20388;-70
2021/04/07 11:53:07;;;;;;;7.65;4.85;;;409.60;614.40;;;;;;4838380;29;20392;-70
2021/04/07 11:55:33;;;;;;;6.38;4.47;;;410.30;614.40;;;;;;4845476;29;20064;-70
2021/04/07 11:58:01;;;;;;;9.45;4.55;;;435.60;588.80;;;;;;4842214;29;20042;-71
2021/04/07 12:00:27;;;;;;;10.32;5.43;;;384.50;614.40;;;;;;4839420;29;20034;-71
2021/04/07 12:02:53;;;;;;;8.65;4.38;;;359.30;665.60;;;;;;4840969;29;20033;-71
2021/04/07 12:05:24;;;;;;;5.90;4.47;;;358.90;665.60;;;;;;4842527;29;20038;-71
2021/04/07 12:07:50;;;;;;;7.57;4.15;;;358.70;665.60;;;;;;4839850;29;20021;-71
2021/04/07 12:10:16;;;;;;;8.88;6.10;;;333.20;665.60;;;;;;4840414;29;20720;-71
2021/04/07 12:12:43;;;;;;;6.97;5.05;;;333.10;665.60;;;;;;4839814;29;20059;-71
2021/04/07 12:15:09;;;;;;;7.00;4.65;;;358.90;640.00;;;;;;4842259;29;20037;-70
2021/04/07 12:17:34;;;;;;;6.18;4.10;;;410.20;614.40;;;;;;4841015;29;20104;-70
2021/04/07 12:20:00;;;;;;;6.63;4.55;;;435.50;588.80;;;;;;4840711;29;20166;-70
2021/04/07 12:22:26;;;;;;;8.40;4.38;;;435.90;563.20;;;;;;4822014;29;20127;-70
2021/04/07 12:24:52;;;;;;;10.23;3.85;;;461.30;563.20;;;;;;4825171;29;20096;-70